sensor_id;sensor_type;location;lat;lon;timestamp;pressure;altitude;pressure_sealevel;temperature;humidity
57799;BME280;43626;53.866;30.298;2023-04-15T00:01:05;1027;;;9.3;39.2
57799;BME280;43626;53.866;30.298;2023-04-15T00:06:49;1027.1;;;9.3;39.1
57799;BME280;43626;53.866;30.298;2023-04-15T00:11:05;1027.1;;;9.3;39
57799;BME280;43626;53.866;30.298;2023-04-15T00:16:49;1027.1;;;9.2;38.8
57799;BME280;43626;53.866;30.298;2023-04-15T00:21:49;1027.2;;;9.2;39.2
57799;BME280;43626;53.866;30.298;2023-04-15T00:26:15;1027.2;;;9.2;38.8
57799;BME280;43626;53.866;30.298;2023-04-15T00:31:13;1027.3;;;9.2;38.7
57799;BME280;43626;53.866;30.298;2023-04-15T00:36:03;1027.3;;;9.2;38.9
57799;BME280;43626;53.866;30.298;2023-04-15T00:41:33;1027.3;;;9.2;38.9
57799;BME280;43626;53.866;30.298;2023-04-15T00:46:49;1027.3;;;9.2;38.9
57799;BME280;43626;53.866;30.298;2023-04-15T00:51:05;1027.4;;;9.2;38.9
57799;BME280;43626;53.866;30.298;2023-04-15T00:56:27;1027.4;;;9.2;39
57799;BME280;43626;53.866;30.298;2023-04-15T01:01:05;1027.4;;;9.1;39
57799;BME280;43626;53.866;30.298;2023-04-15T01:06:35;1027.4;;;9;38.9
57799;BME280;43626;53.866;30.298;2023-04-15T01:11:49;1027.5;;;8.9;39.3
57799;BME280;43626;53.866;30.298;2023-04-15T01:16:15;1027.5;;;8.9;39.6
57799;BME280;43626;53.866;30.298;2023-04-15T01:21:27;1027.5;;;8.9;39.8
57799;BME280;43626;53.866;30.298;2023-04-15T01:26:29;1027.6;;;8.9;39.7
57799;BME280;43626;53.866;30.298;2023-04-15T01:31:33;1027.6;;;8.9;39.7
57799;BME280;43626;53.866;30.298;2023-04-15T01:36:47;1027.6;;;8.9;39.7
57799;BME280;43626;53.866;30.298;2023-04-15T01:41:51;1027.6;;;8.9;39.5
57799;BME280;43626;53.866;30.298;2023-04-15T01:46:05;1027.6;;;8.9;39.2
57799;BME280;43626;53.866;30.298;2023-04-15T01:51:17;1027.6;;;9;39
57799;BME280;43626;53.866;30.298;2023-04-15T01:56:31;1027.7;;;8.9;38.4
57799;BME280;43626;53.866;30.298;2023-04-15T02:01:47;1027.7;;;8.9;38.4
57799;BME280;43626;53.866;30.298;2023-04-15T02:06:33;1027.7;;;8.9;38.3
57799;BME280;43626;53.866;30.298;2023-04-15T02:11:17;1027.8;;;8.9;38.2
57799;BME280;43626;53.866;30.298;2023-04-15T02:16:15;1027.8;;;8.9;39.1
57799;BME280;43626;53.866;30.298;2023-04-15T02:21:31;1027.8;;;8.8;39.7
57799;BME280;43626;53.866;30.298;2023-04-15T02:26:47;1027.8;;;8.8;39.6
57799;BME280;43626;53.866;30.298;2023-04-15T02:31:33;1027.8;;;8.7;39.2
57799;BME280;43626;53.866;30.298;2023-04-15T02:36:25;1027.9;;;8.6;38.7
57799;BME280;43626;53.866;30.298;2023-04-15T02:41:05;1027.9;;;8.5;38.4
57799;BME280;43626;53.866;30.298;2023-04-15T02:46:33;1027.9;;;8.5;38.2
57799;BME280;43626;53.866;30.298;2023-04-15T02:51:37;1027.9;;;8.4;37.3
57799;BME280;43626;53.866;30.298;2023-04-15T02:56:27;1028;;;8.3;36.9
57799;BME280;43626;53.866;30.298;2023-04-15T03:01:05;1028.1;;;8.2;36.5
57799;BME280;43626;53.866;30.298;2023-04-15T03:06:17;1028.1;;;8.1;36.5
57799;BME280;43626;53.866;30.298;2023-04-15T03:11:35;1028.1;;;8;36.4
57799;BME280;43626;53.866;30.298;2023-04-15T03:16:45;1028.1;;;8;36.5
57799;BME280;43626;53.866;30.298;2023-04-15T03:21:31;1028.2;;;8;36.5
57799;BME280;43626;53.866;30.298;2023-04-15T03:26:24;1028.2;;;8.1;36.3
57799;BME280;43626;53.866;30.298;2023-04-15T03:31:39;1028.2;;;8;36.1
57799;BME280;43626;53.866;30.298;2023-04-15T03:36:35;1028.2;;;8;36
57799;BME280;43626;53.866;30.298;2023-04-15T03:41:47;1028.3;;;7.9;35.5
57799;BME280;43626;53.866;30.298;2023-04-15T03:46:27;1028.3;;;7.9;34.8
57799;BME280;43626;53.866;30.298;2023-04-15T03:51:17;1028.3;;;7.8;35.1
57799;BME280;43626;53.866;30.298;2023-04-15T03:56:39;1028.4;;;7.9;35
57799;BME280;43626;53.866;30.298;2023-04-15T04:01:07;1028.5;;;7.9;34.3
57799;BME280;43626;53.866;30.298;2023-04-15T04:06:47;1028.5;;;7.8;34.1
57799;BME280;43626;53.866;30.298;2023-04-15T04:11:33;1028.6;;;7.8;34.4
57799;BME280;43626;53.866;30.298;2023-04-15T04:16:25;1028.6;;;7.7;34.6
57799;BME280;43626;53.866;30.298;2023-04-15T04:21:05;1028.6;;;7.7;34.7
57799;BME280;43626;53.866;30.298;2023-04-15T04:26:33;1028.6;;;7.8;34.7
57799;BME280;43626;53.866;30.298;2023-04-15T04:31:47;1028.6;;;7.8;34.5
57799;BME280;43626;53.866;30.298;2023-04-15T04:36:33;1028.6;;;7.7;33.9
57799;BME280;43626;53.866;30.298;2023-04-15T04:41:25;1028.6;;;7.7;33.4
57799;BME280;43626;53.866;30.298;2023-04-15T04:46:13;1028.6;;;7.8;33.6
57799;BME280;43626;53.866;30.298;2023-04-15T04:51:35;1028.6;;;7.9;33.5
57799;BME280;43626;53.866;30.298;2023-04-15T04:56:49;1028.6;;;8;33.4
57799;BME280;43626;53.866;30.298;2023-04-15T05:01:33;1028.7;;;8.1;33.5
57799;BME280;43626;53.866;30.298;2023-04-15T05:06:25;1028.7;;;8.1;33.3
57799;BME280;43626;53.866;30.298;2023-04-15T05:11:05;1028.8;;;8;32.9
57799;BME280;43626;53.866;30.298;2023-04-15T05:16:41;1028.8;;;7.9;32.9
57799;BME280;43626;53.866;30.298;2023-04-15T05:21:47;1028.8;;;8;32.9
57799;BME280;43626;53.866;30.298;2023-04-15T05:26:33;1028.8;;;8;32.8
57799;BME280;43626;53.866;30.298;2023-04-15T05:31:05;1028.8;;;8;32.5
57799;BME280;43626;53.866;30.298;2023-04-15T05:36:05;1028.8;;;8;32.1
57799;BME280;43626;53.866;30.298;2023-04-15T05:41:35;1028.9;;;8;32.1
57799;BME280;43626;53.866;30.298;2023-04-15T05:46:47;1028.9;;;8;31.9
57799;BME280;43626;53.866;30.298;2023-04-15T05:51:33;1028.9;;;8;31.9
57799;BME280;43626;53.866;30.298;2023-04-15T05:56:41;1028.9;;;8;31.5
57799;BME280;43626;53.866;30.298;2023-04-15T06:01:13;1028.8;;;8.1;32.5
57799;BME280;43626;53.866;30.298;2023-04-15T06:06:47;1028.8;;;8.2;32.5
57799;BME280;43626;53.866;30.298;2023-04-15T06:11:39;1028.8;;;8.2;32.4
57799;BME280;43626;53.866;30.298;2023-04-15T06:16:23;1028.9;;;8.2;32.2
57799;BME280;43626;53.866;30.298;2023-04-15T06:21:45;1028.9;;;8.2;31.4
57799;BME280;43626;53.866;30.298;2023-04-15T06:26:05;1029;;;8.1;31.3
57799;BME280;43626;53.866;30.298;2023-04-15T06:31:46;1029;;;8.1;31.3
57799;BME280;43626;53.866;30.298;2023-04-15T06:36:37;1029.1;;;8.1;31.6
57799;BME280;43626;53.866;30.298;2023-04-15T06:41:19;1029.1;;;8.2;31.6
57799;BME280;43626;53.866;30.298;2023-04-15T06:46:13;1029.2;;;8.2;31.8
57799;BME280;43626;53.866;30.298;2023-04-15T06:51:05;1029.3;;;8.1;31.3
57799;BME280;43626;53.866;30.298;2023-04-15T06:56:45;1029.4;;;8.1;31.5
57799;BME280;43626;53.866;30.298;2023-04-15T07:01:39;1029.4;;;8.2;31.5
57799;BME280;43626;53.866;30.298;2023-04-15T07:06:21;1029.4;;;8.2;31.5
57799;BME280;43626;53.866;30.298;2023-04-15T07:11:49;1029.4;;;8.2;31.4
57799;BME280;43626;53.866;30.298;2023-04-15T07:16:05;1029.5;;;8.2;31.1
57799;BME280;43626;53.866;30.298;2023-04-15T07:21:49;1029.5;;;8.1;30.8
57799;BME280;43626;53.866;30.298;2023-04-15T07:26:39;1029.6;;;8;30.8
57799;BME280;43626;53.866;30.298;2023-04-15T07:31:21;1029.6;;;8;31.5
57799;BME280;43626;53.866;30.298;2023-04-15T07:36:47;1029.6;;;7.9;30.9
57799;BME280;43626;53.866;30.298;2023-04-15T07:41:05;1029.6;;;7.9;31.4
57799;BME280;43626;53.866;30.298;2023-04-15T07:46:46;1029.6;;;8;31.5
57799;BME280;43626;53.866;30.298;2023-04-15T07:51:37;1029.6;;;8.1;31.5
57799;BME280;43626;53.866;30.298;2023-04-15T07:56:21;1029.5;;;8.1;31.5
57799;BME280;43626;53.866;30.298;2023-04-15T08:01:49;1029.5;;;8.2;31.5
57799;BME280;43626;53.866;30.298;2023-04-15T08:06:05;1029.5;;;8.3;31.4
57799;BME280;43626;53.866;30.298;2023-04-15T08:11:49;1029.6;;;8.4;31.2
57799;BME280;43626;53.866;30.298;2023-04-15T08:16:27;1029.6;;;8.4;30.5
57799;BME280;43626;53.866;30.298;2023-04-15T08:21:11;1029.5;;;8.4;31.4
57799;BME280;43626;53.866;30.298;2023-04-15T08:26:47;1029.5;;;8.7;31.6
57799;BME280;43626;53.866;30.298;2023-04-15T08:31:13;1029.5;;;8.9;30.9
57799;BME280;43626;53.866;30.298;2023-04-15T08:36:47;1029.4;;;9.1;31
57799;BME280;43626;53.866;30.298;2023-04-15T08:41:28;1029.4;;;9.2;31
57799;BME280;43626;53.866;30.298;2023-04-15T08:46:33;1029.5;;;9.3;30.9
57799;BME280;43626;53.866;30.298;2023-04-15T08:51:47;1029.5;;;9.4;30.8
57799;BME280;43626;53.866;30.298;2023-04-15T08:56:17;1029.5;;;9.5;30.8
57799;BME280;43626;53.866;30.298;2023-04-15T09:01:48;1029.5;;;9.6;30.3
57799;BME280;43626;53.866;30.298;2023-04-15T09:06:31;1029.5;;;9.8;30.1
57799;BME280;43626;53.866;30.298;2023-04-15T09:11:21;1029.6;;;9.9;30
57799;BME280;43626;53.866;30.298;2023-04-15T09:16:55;1029.6;;;9.9;29.9
57799;BME280;43626;53.866;30.298;2023-04-15T09:21:17;1029.6;;;10;30
57799;BME280;43626;53.866;30.298;2023-04-15T09:26:47;1029.6;;;10.1;29.9
57799;BME280;43626;53.866;30.298;2023-04-15T09:31:40;1029.6;;;10.1;29.7
57799;BME280;43626;53.866;30.298;2023-04-15T09:36:19;1029.6;;;10.1;30.2
57799;BME280;43626;53.866;30.298;2023-04-15T09:42:05;1029.6;;;10.1;30.2
57799;BME280;43626;53.866;30.298;2023-04-15T09:46:41;1029.6;;;10.1;30.1
57799;BME280;43626;53.866;30.298;2023-04-15T09:51:49;1029.6;;;10.1;30.1
57799;BME280;43626;53.866;30.298;2023-04-15T09:56:39;1029.6;;;10.1;30.2
57799;BME280;43626;53.866;30.298;2023-04-15T10:01:21;1029.5;;;10.1;29.9
57799;BME280;43626;53.866;30.298;2023-04-15T10:06:47;1029.5;;;10;29.6
57799;BME280;43626;53.866;30.298;2023-04-15T10:11:27;1029.5;;;10;29.6
57799;BME280;43626;53.866;30.298;2023-04-15T10:16:31;1029.6;;;9.9;29.8
57799;BME280;43626;53.866;30.298;2023-04-15T10:21:47;1029.5;;;9.9;30
57799;BME280;43626;53.866;30.298;2023-04-15T10:26:27;1029.6;;;10;30
57799;BME280;43626;53.866;30.298;2023-04-15T10:31:47;1029.6;;;10.1;30
57799;BME280;43626;53.866;30.298;2023-04-15T10:36:05;1029.6;;;10.1;30
57799;BME280;43626;53.866;30.298;2023-04-15T10:41:33;1029.6;;;10.1;29.9
57799;BME280;43626;53.866;30.298;2023-04-15T10:46:47;1029.5;;;10.1;30.1
57799;BME280;43626;53.866;30.298;2023-04-15T10:51:05;1029.5;;;10.1;30
57799;BME280;43626;53.866;30.298;2023-04-15T10:56:49;1029.6;;;9.9;29.9
57799;BME280;43626;53.866;30.298;2023-04-15T11:01:18;1029.7;;;9.9;30
57799;BME280;43626;53.866;30.298;2023-04-15T11:06:42;1029.6;;;9.9;29.6
57799;BME280;43626;53.866;30.298;2023-04-15T11:12:19;1029.6;;;10;29.8
57799;BME280;43626;53.866;30.298;2023-04-15T11:16:05;1029.6;;;10.1;29.9
57799;BME280;43626;53.866;30.298;2023-04-15T11:21:39;1029.7;;;10.2;29.4
57799;BME280;43626;53.866;30.298;2023-04-15T11:26:13;1029.7;;;10.3;29.2
57799;BME280;43626;53.866;30.298;2023-04-15T11:31:35;1029.6;;;10.2;29.2
57799;BME280;43626;53.866;30.298;2023-04-15T11:36:49;1029.5;;;10.3;29.5
57799;BME280;43626;53.866;30.298;2023-04-15T11:41:21;1029.6;;;10.5;29.2
57799;BME280;43626;53.866;30.298;2023-04-15T11:46:39;1029.6;;;10.4;28.9
57799;BME280;43626;53.866;30.298;2023-04-15T11:51:17;1029.6;;;10.4;28.7
57799;BME280;43626;53.866;30.298;2023-04-15T11:56:35;1029.6;;;10.4;28.3
57799;BME280;43626;53.866;30.298;2023-04-15T12:01:39;1029.5;;;10.4;28.6
57799;BME280;43626;53.866;30.298;2023-04-15T12:06:20;1029.5;;;10.4;28.4
57799;BME280;43626;53.866;30.298;2023-04-15T12:11:48;1029.6;;;10.4;28.4
57799;BME280;43626;53.866;30.298;2023-04-15T12:16:06;1029.5;;;10.3;28.1
57799;BME280;43626;53.866;30.298;2023-04-15T12:21:34;1029.6;;;10.1;28.4
57799;BME280;43626;53.866;30.298;2023-04-15T12:26:46;1029.6;;;10.1;28.4
57799;BME280;43626;53.866;30.298;2023-04-15T12:31:13;1029.6;;;10;28.4
57799;BME280;43626;53.866;30.298;2023-04-15T12:36:45;1029.6;;;9.9;28.5
57799;BME280;43626;53.866;30.298;2023-04-15T12:41:05;1029.6;;;9.8;28.7
57799;BME280;43626;53.866;30.298;2023-04-15T12:46:33;1029.6;;;9.8;28.7
57799;BME280;43626;53.866;30.298;2023-04-15T12:51:46;1029.6;;;9.5;28.6
57799;BME280;43626;53.866;30.298;2023-04-15T12:56:19;1029.6;;;9.3;28.6
57799;BME280;43626;53.866;30.298;2023-04-15T13:01:33;1029.5;;;9.3;29
57799;BME280;43626;53.866;30.298;2023-04-15T13:06:13;1029.6;;;9.2;28.9
57799;BME280;43626;53.866;30.298;2023-04-15T13:11:33;1029.6;;;9.1;28.5
57799;BME280;43626;53.866;30.298;2023-04-15T13:16:45;1029.7;;;9.1;28.7
57799;BME280;43626;53.866;30.298;2023-04-15T13:21:21;1029.7;;;9.1;28.6
57799;BME280;43626;53.866;30.298;2023-04-15T13:26:47;1029.7;;;9.1;29
57799;BME280;43626;53.866;30.298;2023-04-15T13:31:47;1029.7;;;9.2;29.2
57799;BME280;43626;53.866;30.298;2023-04-15T13:36:35;1029.7;;;9.2;29
57799;BME280;43626;53.866;30.298;2023-04-15T13:41:47;1029.7;;;9.3;29.1
57799;BME280;43626;53.866;30.298;2023-04-15T13:46:19;1029.7;;;9.3;29.2
57799;BME280;43626;53.866;30.298;2023-04-15T13:51:43;1029.7;;;9.3;29.1
57799;BME280;43626;53.866;30.298;2023-04-15T13:56:13;1029.7;;;9.2;28.8
57799;BME280;43626;53.866;30.298;2023-04-15T14:01:27;1029.7;;;9.2;29.1
57799;BME280;43626;53.866;30.298;2023-04-15T14:06:45;1029.7;;;9.1;28.7
57799;BME280;43626;53.866;30.298;2023-04-15T14:11:13;1029.7;;;9;29
57799;BME280;43626;53.866;30.298;2023-04-15T14:16:47;1029.7;;;9;29.3
57799;BME280;43626;53.866;30.298;2023-04-15T14:21:13;1029.7;;;8.9;29.2
57799;BME280;43626;53.866;30.298;2023-04-15T14:26:35;1029.7;;;8.9;29.1
57799;BME280;43626;53.866;30.298;2023-04-15T14:31:05;1029.7;;;8.8;29.4
57799;BME280;43626;53.866;30.298;2023-04-15T14:36:13;1029.8;;;8.9;29.5
57799;BME280;43626;53.866;30.298;2023-04-15T14:41:45;1029.8;;;8.9;29.6
57799;BME280;43626;53.866;30.298;2023-04-15T14:46:24;1029.8;;;8.8;29.7
57799;BME280;43626;53.866;30.298;2023-04-15T14:51:33;1029.8;;;8.8;29.9
57799;BME280;43626;53.866;30.298;2023-04-15T14:56:13;1029.7;;;8.7;29.6
57799;BME280;43626;53.866;30.298;2023-04-15T15:01:20;1029.7;;;8.7;29.5
57799;BME280;43626;53.866;30.298;2023-04-15T15:06:45;1029.7;;;8.7;29.8
57799;BME280;43626;53.866;30.298;2023-04-15T15:11:14;1029.7;;;8.7;30.2
57799;BME280;43626;53.866;30.298;2023-04-15T15:16:45;1029.7;;;8.7;30.1
57799;BME280;43626;53.866;30.298;2023-04-15T15:21:05;1029.6;;;8.7;30.2
57799;BME280;43626;53.866;30.298;2023-04-15T15:26:19;1029.6;;;8.7;30.3
57799;BME280;43626;53.866;30.298;2023-04-15T15:31:45;1029.6;;;8.7;30.4
57799;BME280;43626;53.866;30.298;2023-04-15T15:36:06;1029.6;;;8.7;30.5
57799;BME280;43626;53.866;30.298;2023-04-15T15:41:31;1029.6;;;8.7;30.4
57799;BME280;43626;53.866;30.298;2023-04-15T15:46:11;1029.5;;;8.7;30.7
57799;BME280;43626;53.866;30.298;2023-04-15T15:51:17;1029.5;;;8.8;30.7
57799;BME280;43626;53.866;30.298;2023-04-15T15:56:43;1029.5;;;8.8;30.6
57799;BME280;43626;53.866;30.298;2023-04-15T16:01:35;1029.5;;;8.8;30.4
57799;BME280;43626;53.866;30.298;2023-04-15T16:06:31;1029.5;;;8.7;30.4
57799;BME280;43626;53.866;30.298;2023-04-15T16:11:05;1029.6;;;8.8;30.9
57799;BME280;43626;53.866;30.298;2023-04-15T16:16:06;1029.6;;;8.8;30.7
57799;BME280;43626;53.866;30.298;2023-04-15T16:21:45;1029.6;;;8.9;30.8
57799;BME280;43626;53.866;30.298;2023-04-15T16:26:05;1029.6;;;8.9;30.5
57799;BME280;43626;53.866;30.298;2023-04-15T16:31:27;1029.6;;;8.8;30.5
57799;BME280;43626;53.866;30.298;2023-04-15T16:36:05;1029.7;;;8.8;30.6
57799;BME280;43626;53.866;30.298;2023-04-15T16:41:47;1029.7;;;8.7;30.8
57799;BME280;43626;53.866;30.298;2023-04-15T16:46:47;1029.7;;;8.7;30.6
57799;BME280;43626;53.866;30.298;2023-04-15T16:51:05;1029.7;;;8.7;30.6
57799;BME280;43626;53.866;30.298;2023-04-15T16:56:35;1029.7;;;8.7;30.7
57799;BME280;43626;53.866;30.298;2023-04-15T17:01:13;1029.8;;;8.6;31.2
57799;BME280;43626;53.866;30.298;2023-04-15T17:06:05;1029.8;;;8.7;31.5
57799;BME280;43626;53.866;30.298;2023-04-15T17:11:37;1029.9;;;8.7;31.3
57799;BME280;43626;53.866;30.298;2023-04-15T17:16:06;1029.9;;;8.7;31.5
57799;BME280;43626;53.866;30.298;2023-04-15T17:21:33;1030;;;8.8;31.7
57799;BME280;43626;53.866;30.298;2023-04-15T17:26:13;1030;;;8.8;31.7
57799;BME280;43626;53.866;30.298;2023-04-15T17:31:21;1030.1;;;8.8;31.6
57799;BME280;43626;53.866;30.298;2023-04-15T17:36:47;1030.1;;;8.7;31.6
57799;BME280;43626;53.866;30.298;2023-04-15T17:41:37;1030.2;;;8.6;32
57799;BME280;43626;53.866;30.298;2023-04-15T17:46:33;1030.2;;;8.7;32
57799;BME280;43626;53.866;30.298;2023-04-15T17:51:05;1030.3;;;8.6;32.3
57799;BME280;43626;53.866;30.298;2023-04-15T17:56:19;1030.3;;;8.5;32.2
57799;BME280;43626;53.866;30.298;2023-04-15T18:01:45;1030.3;;;8.5;31.9
57799;BME280;43626;53.866;30.298;2023-04-15T18:06:24;1030.3;;;8.4;31.9
57799;BME280;43626;53.866;30.298;2023-04-15T18:11:33;1030.3;;;8.3;31.7
57799;BME280;43626;53.866;30.298;2023-04-15T18:16:05;1030.2;;;8.3;31.6
57799;BME280;43626;53.866;30.298;2023-04-15T18:21:20;1030.2;;;8.3;31.6
57799;BME280;43626;53.866;30.298;2023-04-15T18:26:46;1030.2;;;8.2;31.6
57799;BME280;43626;53.866;30.298;2023-04-15T18:31:17;1030.2;;;8.2;31.6
57799;BME280;43626;53.866;30.298;2023-04-15T18:36:33;1030.3;;;8.2;31.6
57799;BME280;43626;53.866;30.298;2023-04-15T18:41:05;1030.3;;;8.2;31.4
57799;BME280;43626;53.866;30.298;2023-04-15T18:46:06;1030.4;;;8.1;31.6
57799;BME280;43626;53.866;30.298;2023-04-15T18:51:47;1030.4;;;8.1;31.9
57799;BME280;43626;53.866;30.298;2023-04-15T18:56:34;1030.4;;;8;31.8
57799;BME280;43626;53.866;30.298;2023-04-15T19:01:17;1030.4;;;8;32
57799;BME280;43626;53.866;30.298;2023-04-15T19:06:06;1030.4;;;8.1;31.9
57799;BME280;43626;53.866;30.298;2023-04-15T19:11:19;1030.3;;;8;32
57799;BME280;43626;53.866;30.298;2023-04-15T19:16:43;1030.3;;;8;32
57799;BME280;43626;53.866;30.298;2023-04-15T19:21:20;1030.3;;;8;32.1
57799;BME280;43626;53.866;30.298;2023-04-15T19:26:36;1030.3;;;8;32.1
57799;BME280;43626;53.866;30.298;2023-04-15T19:31:14;1030.3;;;8;32.1
57799;BME280;43626;53.866;30.298;2023-04-15T19:36:46;1030.3;;;8;32.6
57799;BME280;43626;53.866;30.298;2023-04-15T19:41:48;1030.3;;;8;32.7
57799;BME280;43626;53.866;30.298;2023-04-15T19:46:06;1030.3;;;8;32.8
57799;BME280;43626;53.866;30.298;2023-04-15T19:51:34;1030.3;;;8;32.8
57799;BME280;43626;53.866;30.298;2023-04-15T19:56:24;1030.4;;;8;32.9
57799;BME280;43626;53.866;30.298;2023-04-15T20:01:20;1030.4;;;8;32.9
57799;BME280;43626;53.866;30.298;2023-04-15T20:06:46;1030.4;;;8;33.3
57799;BME280;43626;53.866;30.298;2023-04-15T20:11:20;1030.6;;;8;33.4
57799;BME280;43626;53.866;30.298;2023-04-15T20:16:34;1030.6;;;7.9;34
57799;BME280;43626;53.866;30.298;2023-04-15T20:21:14;1030.7;;;7.8;34.5
57799;BME280;43626;53.866;30.298;2023-04-15T20:26:20;1030.7;;;7.7;35.1
57799;BME280;43626;53.866;30.298;2023-04-15T20:31:46;1030.8;;;7.6;37.4
57799;BME280;43626;53.866;30.298;2023-04-15T20:36:20;1030.8;;;7.5;40.3
57799;BME280;43626;53.866;30.298;2023-04-15T20:41:34;1030.8;;;7.4;40.8
57799;BME280;43626;53.866;30.298;2023-04-15T20:46:14;1030.7;;;7.4;41.2
57799;BME280;43626;53.866;30.298;2023-04-15T20:51:12;1030.6;;;7.4;41
57799;BME280;43626;53.866;30.298;2023-04-15T20:56:48;1030.5;;;7.4;39.9
57799;BME280;43626;53.866;30.298;2023-04-15T21:01:22;1030.4;;;7.4;39.1
57799;BME280;43626;53.866;30.298;2023-04-15T21:06:34;1030.4;;;7.4;38.8
57799;BME280;43626;53.866;30.298;2023-04-15T21:11:24;1030.4;;;7.5;38.4
57799;BME280;43626;53.866;30.298;2023-04-15T21:16:30;1030.3;;;7.5;38.1
57799;BME280;43626;53.866;30.298;2023-04-15T21:21:44;1030.3;;;7.5;37.9
57799;BME280;43626;53.866;30.298;2023-04-15T21:26:14;1030.2;;;7.5;37.4
57799;BME280;43626;53.866;30.298;2023-04-15T21:31:36;1030.2;;;7.5;37.1
57799;BME280;43626;53.866;30.298;2023-04-15T21:36:38;1030.2;;;7.5;36.7
57799;BME280;43626;53.866;30.298;2023-04-15T21:41:06;1030.2;;;7.6;36.4
57799;BME280;43626;53.866;30.298;2023-04-15T21:46:46;1030.2;;;7.6;35.9
57799;BME280;43626;53.866;30.298;2023-04-15T21:51:14;1030.2;;;7.6;36.1
57799;BME280;43626;53.866;30.298;2023-04-15T21:56:34;1030.2;;;7.6;36
57799;BME280;43626;53.866;30.298;2023-04-15T22:01:24;1030.2;;;7.6;35.8
57799;BME280;43626;53.866;30.298;2023-04-15T22:06:32;1030.2;;;7.7;35.8
57799;BME280;43626;53.866;30.298;2023-04-15T22:11:46;1030.2;;;7.7;36
57799;BME280;43626;53.866;30.298;2023-04-15T22:16:20;1030.1;;;7.7;36.2
57799;BME280;43626;53.866;30.298;2023-04-15T22:21:34;1030.1;;;7.6;36.3
57799;BME280;43626;53.866;30.298;2023-04-15T22:26:06;1030.2;;;7.6;36.4
57799;BME280;43626;53.866;30.298;2023-04-15T22:31:20;1030.2;;;7.6;36.5
57799;BME280;43626;53.866;30.298;2023-04-15T22:36:44;1030.2;;;7.6;36.6
57799;BME280;43626;53.866;30.298;2023-04-15T22:41:20;1030.1;;;7.5;36.8
57799;BME280;43626;53.866;30.298;2023-04-15T22:46:36;1030.1;;;7.6;36.8
57799;BME280;43626;53.866;30.298;2023-04-15T22:51:19;1030.1;;;7.6;36.7
57799;BME280;43626;53.866;30.298;2023-04-15T22:56:46;1030.1;;;7.6;36.8
57799;BME280;43626;53.866;30.298;2023-04-15T23:01:16;1030.1;;;7.6;36.9
57799;BME280;43626;53.866;30.298;2023-04-15T23:06:46;1030.1;;;7.6;37.1
57799;BME280;43626;53.866;30.298;2023-04-15T23:11:38;1030.1;;;7.6;37.4
57799;BME280;43626;53.866;30.298;2023-04-15T23:16:06;1030.2;;;7.6;37.8
57799;BME280;43626;53.866;30.298;2023-04-15T23:21:20;1030.2;;;7.6;38.1
57799;BME280;43626;53.866;30.298;2023-04-15T23:26:32;1030.1;;;7.6;38.4
57799;BME280;43626;53.866;30.298;2023-04-15T23:31:46;1030.1;;;7.6;38.5
57799;BME280;43626;53.866;30.298;2023-04-15T23:36:34;1030.1;;;7.6;38.5
57799;BME280;43626;53.866;30.298;2023-04-15T23:41:24;1030.1;;;7.6;38.5
57799;BME280;43626;53.866;30.298;2023-04-15T23:46:34;1030.1;;;7.6;38.6
57799;BME280;43626;53.866;30.298;2023-04-15T23:51:06;1030.1;;;7.6;38.8
57799;BME280;43626;53.866;30.298;2023-04-15T23:56:32;1030.1;;;7.6;38.9
